sensor_id;sensor_type;location;lat;lon;timestamp;P1;durP1;ratioP1;P2;durP2;ratioP2
61250;SDS011;47126;47.508;8.590;2024-01-11T00:00:00;81.40;;;28.02;;
61250;SDS011;47126;47.508;8.590;2024-01-11T00:02:27;76.32;;;24.70;;
61250;SDS011;47126;47.508;8.590;2024-01-11T00:04:53;74.82;;;24.73;;
61250;SDS011;47126;47.508;8.590;2024-01-11T00:07:19;77.18;;;25.13;;
61250;SDS011;47126;47.508;8.590;2024-01-11T00:09:45;64.18;;;22.80;;
61250;SDS011;47126;47.508;8.590;2024-01-11T00:12:11;80.60;;;25.98;;
61250;SDS011;47126;47.508;8.590;2024-01-11T00:14:37;68.25;;;24.85;;
61250;SDS011;47126;47.508;8.590;2024-01-11T00:17:03;66.70;;;21.27;;
61250;SDS011;47126;47.508;8.590;2024-01-11T00:19:29;75.65;;;21.92;;
61250;SDS011;47126;47.508;8.590;2024-01-11T00:21:56;62.85;;;20.55;;
61250;SDS011;47126;47.508;8.590;2024-01-11T00:24:22;65.15;;;23.77;;
61250;SDS011;47126;47.508;8.590;2024-01-11T00:26:48;70.82;;;24.25;;
61250;SDS011;47126;47.508;8.590;2024-01-11T00:29:14;70.55;;;24.48;;
61250;SDS011;47126;47.508;8.590;2024-01-11T00:31:40;63.10;;;19.35;;
61250;SDS011;47126;47.508;8.590;2024-01-11T00:34:06;69.75;;;20.15;;
61250;SDS011;47126;47.508;8.590;2024-01-11T00:36:32;67.68;;;22.10;;
61250;SDS011;47126;47.508;8.590;2024-01-11T00:38:59;80.00;;;25.45;;
61250;SDS011;47126;47.508;8.590;2024-01-11T00:41:25;68.70;;;22.70;;
61250;SDS011;47126;47.508;8.590;2024-01-11T00:43:51;74.50;;;27.10;;
61250;SDS011;47126;47.508;8.590;2024-01-11T00:46:17;71.55;;;26.05;;
61250;SDS011;47126;47.508;8.590;2024-01-11T00:48:44;83.07;;;26.73;;
61250;SDS011;47126;47.508;8.590;2024-01-11T00:51:10;75.97;;;24.17;;
61250;SDS011;47126;47.508;8.590;2024-01-11T00:53:48;69.03;;;24.60;;
61250;SDS011;47126;47.508;8.590;2024-01-11T00:56:17;71.45;;;24.33;;
61250;SDS011;47126;47.508;8.590;2024-01-11T00:58:44;80.05;;;26.75;;
61250;SDS011;47126;47.508;8.590;2024-01-11T01:01:10;69.82;;;25.60;;
61250;SDS011;47126;47.508;8.590;2024-01-11T01:03:36;66.88;;;23.73;;
61250;SDS011;47126;47.508;8.590;2024-01-11T01:06:03;73.82;;;23.70;;
61250;SDS011;47126;47.508;8.590;2024-01-11T01:08:30;69.90;;;22.98;;
61250;SDS011;47126;47.508;8.590;2024-01-11T01:10:56;75.78;;;25.90;;
61250;SDS011;47126;47.508;8.590;2024-01-11T01:13:22;70.45;;;25.42;;
61250;SDS011;47126;47.508;8.590;2024-01-11T01:15:48;74.43;;;23.25;;
61250;SDS011;47126;47.508;8.590;2024-01-11T01:18:14;72.05;;;26.33;;
61250;SDS011;47126;47.508;8.590;2024-01-11T01:20:40;74.10;;;24.65;;
61250;SDS011;47126;47.508;8.590;2024-01-11T01:23:06;92.75;;;28.10;;
61250;SDS011;47126;47.508;8.590;2024-01-11T01:25:32;82.95;;;25.38;;
61250;SDS011;47126;47.508;8.590;2024-01-11T01:27:58;85.43;;;25.85;;
61250;SDS011;47126;47.508;8.590;2024-01-11T01:30:25;71.22;;;26.33;;
61250;SDS011;47126;47.508;8.590;2024-01-11T01:32:51;77.43;;;25.83;;
61250;SDS011;47126;47.508;8.590;2024-01-11T01:35:17;74.65;;;24.58;;
61250;SDS011;47126;47.508;8.590;2024-01-11T01:37:43;77.53;;;26.48;;
61250;SDS011;47126;47.508;8.590;2024-01-11T01:40:10;77.53;;;25.08;;
61250;SDS011;47126;47.508;8.590;2024-01-11T01:42:40;64.75;;;21.90;;
61250;SDS011;47126;47.508;8.590;2024-01-11T01:45:06;77.25;;;24.10;;
61250;SDS011;47126;47.508;8.590;2024-01-11T01:47:32;76.85;;;24.17;;
61250;SDS011;47126;47.508;8.590;2024-01-11T01:49:58;70.03;;;24.20;;
61250;SDS011;47126;47.508;8.590;2024-01-11T01:52:25;76.38;;;24.83;;
61250;SDS011;47126;47.508;8.590;2024-01-11T01:54:51;66.82;;;22.13;;
61250;SDS011;47126;47.508;8.590;2024-01-11T01:57:17;65.00;;;21.50;;
61250;SDS011;47126;47.508;8.590;2024-01-11T01:59:44;71.68;;;22.27;;
61250;SDS011;47126;47.508;8.590;2024-01-11T02:02:11;70.82;;;23.55;;
61250;SDS011;47126;47.508;8.590;2024-01-11T02:04:37;62.85;;;20.90;;
61250;SDS011;47126;47.508;8.590;2024-01-11T02:07:04;73.80;;;24.55;;
61250;SDS011;47126;47.508;8.590;2024-01-11T02:09:30;65.28;;;23.77;;
61250;SDS011;47126;47.508;8.590;2024-01-11T02:11:56;71.28;;;21.60;;
61250;SDS011;47126;47.508;8.590;2024-01-11T02:14:23;76.90;;;23.95;;
61250;SDS011;47126;47.508;8.590;2024-01-11T02:16:50;74.68;;;23.58;;
61250;SDS011;47126;47.508;8.590;2024-01-11T02:19:17;63.95;;;22.17;;
61250;SDS011;47126;47.508;8.590;2024-01-11T02:21:44;64.18;;;21.52;;
61250;SDS011;47126;47.508;8.590;2024-01-11T02:24:11;64.00;;;22.00;;
61250;SDS011;47126;47.508;8.590;2024-01-11T02:26:45;64.15;;;21.33;;
61250;SDS011;47126;47.508;8.590;2024-01-11T02:29:23;61.85;;;20.10;;
61250;SDS011;47126;47.508;8.590;2024-01-11T02:31:49;75.68;;;23.88;;
61250;SDS011;47126;47.508;8.590;2024-01-11T02:34:15;66.35;;;21.58;;
61250;SDS011;47126;47.508;8.590;2024-01-11T02:36:41;80.10;;;26.15;;
61250;SDS011;47126;47.508;8.590;2024-01-11T02:39:08;67.03;;;24.30;;
61250;SDS011;47126;47.508;8.590;2024-01-11T02:41:34;78.28;;;25.90;;
61250;SDS011;47126;47.508;8.590;2024-01-11T02:44:01;70.57;;;22.10;;
61250;SDS011;47126;47.508;8.590;2024-01-11T02:46:27;71.55;;;23.92;;
61250;SDS011;47126;47.508;8.590;2024-01-11T02:48:53;65.88;;;20.85;;
61250;SDS011;47126;47.508;8.590;2024-01-11T02:51:19;68.43;;;21.35;;
61250;SDS011;47126;47.508;8.590;2024-01-11T02:53:45;64.38;;;21.50;;
61250;SDS011;47126;47.508;8.590;2024-01-11T02:56:11;63.78;;;21.67;;
61250;SDS011;47126;47.508;8.590;2024-01-11T02:58:37;64.78;;;22.13;;
61250;SDS011;47126;47.508;8.590;2024-01-11T03:01:03;63.63;;;22.05;;
61250;SDS011;47126;47.508;8.590;2024-01-11T03:03:29;64.95;;;21.05;;
61250;SDS011;47126;47.508;8.590;2024-01-11T03:05:55;68.50;;;21.45;;
61250;SDS011;47126;47.508;8.590;2024-01-11T03:08:21;64.45;;;20.70;;
61250;SDS011;47126;47.508;8.590;2024-01-11T03:10:47;61.15;;;21.35;;
61250;SDS011;47126;47.508;8.590;2024-01-11T03:13:13;57.05;;;19.67;;
61250;SDS011;47126;47.508;8.590;2024-01-11T03:15:39;55.88;;;19.90;;
61250;SDS011;47126;47.508;8.590;2024-01-11T03:18:05;58.80;;;18.13;;
61250;SDS011;47126;47.508;8.590;2024-01-11T03:20:31;50.53;;;19.73;;
61250;SDS011;47126;47.508;8.590;2024-01-11T03:22:57;59.70;;;20.90;;
61250;SDS011;47126;47.508;8.590;2024-01-11T03:25:23;56.88;;;17.83;;
61250;SDS011;47126;47.508;8.590;2024-01-11T03:27:49;54.97;;;19.98;;
61250;SDS011;47126;47.508;8.590;2024-01-11T03:30:15;54.60;;;16.75;;
61250;SDS011;47126;47.508;8.590;2024-01-11T03:32:41;57.17;;;18.58;;
61250;SDS011;47126;47.508;8.590;2024-01-11T03:35:08;54.42;;;16.85;;
61250;SDS011;47126;47.508;8.590;2024-01-11T03:37:34;60.58;;;20.20;;
61250;SDS011;47126;47.508;8.590;2024-01-11T03:40:00;61.15;;;20.10;;
61250;SDS011;47126;47.508;8.590;2024-01-11T03:42:26;64.35;;;18.85;;
61250;SDS011;47126;47.508;8.590;2024-01-11T03:44:52;52.15;;;17.80;;
61250;SDS011;47126;47.508;8.590;2024-01-11T03:47:18;59.95;;;19.83;;
61250;SDS011;47126;47.508;8.590;2024-01-11T03:49:44;51.92;;;18.27;;
61250;SDS011;47126;47.508;8.590;2024-01-11T03:52:48;61.45;;;18.27;;
61250;SDS011;47126;47.508;8.590;2024-01-11T03:55:14;58.03;;;19.35;;
61250;SDS011;47126;47.508;8.590;2024-01-11T03:57:40;54.38;;;16.00;;
61250;SDS011;47126;47.508;8.590;2024-01-11T04:00:07;62.97;;;20.05;;
61250;SDS011;47126;47.508;8.590;2024-01-11T04:02:34;56.13;;;18.98;;
61250;SDS011;47126;47.508;8.590;2024-01-11T04:05:00;65.78;;;18.65;;
61250;SDS011;47126;47.508;8.590;2024-01-11T04:07:26;51.53;;;16.73;;
61250;SDS011;47126;47.508;8.590;2024-01-11T04:09:52;66.50;;;18.88;;
61250;SDS011;47126;47.508;8.590;2024-01-11T04:12:19;56.53;;;19.25;;
61250;SDS011;47126;47.508;8.590;2024-01-11T04:14:45;59.03;;;18.85;;
61250;SDS011;47126;47.508;8.590;2024-01-11T04:17:11;58.25;;;21.23;;
61250;SDS011;47126;47.508;8.590;2024-01-11T04:19:37;56.67;;;18.58;;
61250;SDS011;47126;47.508;8.590;2024-01-11T04:22:03;52.75;;;17.63;;
61250;SDS011;47126;47.508;8.590;2024-01-11T04:24:29;51.47;;;15.57;;
61250;SDS011;47126;47.508;8.590;2024-01-11T04:26:55;48.75;;;15.77;;
61250;SDS011;47126;47.508;8.590;2024-01-11T04:29:21;52.35;;;19.25;;
61250;SDS011;47126;47.508;8.590;2024-01-11T04:31:47;64.47;;;20.73;;
61250;SDS011;47126;47.508;8.590;2024-01-11T04:34:13;52.33;;;18.85;;
61250;SDS011;47126;47.508;8.590;2024-01-11T04:36:39;53.60;;;18.63;;
61250;SDS011;47126;47.508;8.590;2024-01-11T04:39:05;49.17;;;16.50;;
61250;SDS011;47126;47.508;8.590;2024-01-11T04:41:33;60.60;;;19.00;;
61250;SDS011;47126;47.508;8.590;2024-01-11T04:43:59;63.33;;;21.08;;
61250;SDS011;47126;47.508;8.590;2024-01-11T04:46:25;65.60;;;19.40;;
61250;SDS011;47126;47.508;8.590;2024-01-11T04:48:51;55.50;;;18.38;;
61250;SDS011;47126;47.508;8.590;2024-01-11T04:51:19;52.60;;;19.02;;
61250;SDS011;47126;47.508;8.590;2024-01-11T04:53:45;63.67;;;19.58;;
61250;SDS011;47126;47.508;8.590;2024-01-11T04:56:12;61.30;;;20.75;;
61250;SDS011;47126;47.508;8.590;2024-01-11T04:58:40;56.17;;;19.05;;
61250;SDS011;47126;47.508;8.590;2024-01-11T05:01:06;60.15;;;19.15;;
61250;SDS011;47126;47.508;8.590;2024-01-11T05:03:33;58.08;;;19.23;;
61250;SDS011;47126;47.508;8.590;2024-01-11T05:05:59;54.20;;;17.88;;
61250;SDS011;47126;47.508;8.590;2024-01-11T05:08:25;52.08;;;17.70;;
61250;SDS011;47126;47.508;8.590;2024-01-11T05:10:52;48.63;;;15.65;;
61250;SDS011;47126;47.508;8.590;2024-01-11T05:13:18;57.22;;;18.15;;
61250;SDS011;47126;47.508;8.590;2024-01-11T05:15:45;59.72;;;18.88;;
61250;SDS011;47126;47.508;8.590;2024-01-11T05:18:11;52.90;;;16.25;;
61250;SDS011;47126;47.508;8.590;2024-01-11T05:20:37;59.63;;;20.50;;
61250;SDS011;47126;47.508;8.590;2024-01-11T05:23:03;54.05;;;19.33;;
61250;SDS011;47126;47.508;8.590;2024-01-11T05:25:29;56.72;;;17.60;;
61250;SDS011;47126;47.508;8.590;2024-01-11T05:27:59;46.22;;;16.55;;
61250;SDS011;47126;47.508;8.590;2024-01-11T05:30:26;59.50;;;17.30;;
61250;SDS011;47126;47.508;8.590;2024-01-11T05:32:52;54.83;;;16.70;;
61250;SDS011;47126;47.508;8.590;2024-01-11T05:35:18;57.65;;;17.08;;
61250;SDS011;47126;47.508;8.590;2024-01-11T05:40:48;47.97;;;15.05;;
61250;SDS011;47126;47.508;8.590;2024-01-11T05:43:14;48.45;;;17.52;;
61250;SDS011;47126;47.508;8.590;2024-01-11T05:45:40;42.92;;;15.35;;
61250;SDS011;47126;47.508;8.590;2024-01-11T05:48:06;46.38;;;16.48;;
61250;SDS011;47126;47.508;8.590;2024-01-11T05:50:32;45.30;;;16.73;;
61250;SDS011;47126;47.508;8.590;2024-01-11T05:52:58;62.03;;;18.48;;
61250;SDS011;47126;47.508;8.590;2024-01-11T05:55:24;51.70;;;17.67;;
61250;SDS011;47126;47.508;8.590;2024-01-11T05:57:50;51.25;;;16.42;;
61250;SDS011;47126;47.508;8.590;2024-01-11T06:00:16;47.63;;;16.13;;
61250;SDS011;47126;47.508;8.590;2024-01-11T06:02:43;44.90;;;17.30;;
61250;SDS011;47126;47.508;8.590;2024-01-11T06:05:09;54.58;;;17.15;;
61250;SDS011;47126;47.508;8.590;2024-01-11T06:07:35;49.78;;;16.88;;
61250;SDS011;47126;47.508;8.590;2024-01-11T06:10:01;46.72;;;15.65;;
61250;SDS011;47126;47.508;8.590;2024-01-11T06:12:28;49.55;;;15.80;;
61250;SDS011;47126;47.508;8.590;2024-01-11T06:14:54;44.55;;;15.05;;
61250;SDS011;47126;47.508;8.590;2024-01-11T06:17:20;52.08;;;17.10;;
61250;SDS011;47126;47.508;8.590;2024-01-11T06:19:46;50.38;;;16.65;;
61250;SDS011;47126;47.508;8.590;2024-01-11T06:22:12;47.72;;;15.73;;
61250;SDS011;47126;47.508;8.590;2024-01-11T06:24:38;53.05;;;17.23;;
61250;SDS011;47126;47.508;8.590;2024-01-11T06:27:04;41.40;;;14.68;;
61250;SDS011;47126;47.508;8.590;2024-01-11T06:29:30;49.13;;;16.38;;
61250;SDS011;47126;47.508;8.590;2024-01-11T06:31:56;51.03;;;15.93;;
61250;SDS011;47126;47.508;8.590;2024-01-11T06:34:22;63.30;;;17.00;;
61250;SDS011;47126;47.508;8.590;2024-01-11T06:36:48;53.30;;;17.88;;
61250;SDS011;47126;47.508;8.590;2024-01-11T06:39:14;54.25;;;17.65;;
61250;SDS011;47126;47.508;8.590;2024-01-11T06:41:40;45.50;;;15.13;;
61250;SDS011;47126;47.508;8.590;2024-01-11T06:44:06;54.53;;;16.65;;
61250;SDS011;47126;47.508;8.590;2024-01-11T06:46:32;53.05;;;19.63;;
61250;SDS011;47126;47.508;8.590;2024-01-11T06:48:58;58.83;;;18.92;;
61250;SDS011;47126;47.508;8.590;2024-01-11T06:51:24;62.47;;;20.17;;
61250;SDS011;47126;47.508;8.590;2024-01-11T06:53:51;54.65;;;18.92;;
61250;SDS011;47126;47.508;8.590;2024-01-11T06:56:18;64.25;;;21.42;;
61250;SDS011;47126;47.508;8.590;2024-01-11T06:58:45;59.38;;;19.23;;
61250;SDS011;47126;47.508;8.590;2024-01-11T07:01:11;72.00;;;25.10;;
61250;SDS011;47126;47.508;8.590;2024-01-11T07:03:38;69.95;;;22.70;;
61250;SDS011;47126;47.508;8.590;2024-01-11T07:06:04;67.68;;;21.65;;
61250;SDS011;47126;47.508;8.590;2024-01-11T07:08:31;64.18;;;21.67;;
61250;SDS011;47126;47.508;8.590;2024-01-11T07:10:57;65.35;;;20.60;;
61250;SDS011;47126;47.508;8.590;2024-01-11T07:13:23;73.13;;;23.67;;
61250;SDS011;47126;47.508;8.590;2024-01-11T07:15:49;73.15;;;23.80;;
61250;SDS011;47126;47.508;8.590;2024-01-11T07:18:17;77.95;;;25.13;;
61250;SDS011;47126;47.508;8.590;2024-01-11T07:20:43;64.97;;;22.17;;
61250;SDS011;47126;47.508;8.590;2024-01-11T07:23:09;65.43;;;20.73;;
61250;SDS011;47126;47.508;8.590;2024-01-11T07:25:36;72.53;;;23.38;;
61250;SDS011;47126;47.508;8.590;2024-01-11T07:28:02;72.45;;;25.95;;
61250;SDS011;47126;47.508;8.590;2024-01-11T07:30:28;70.30;;;22.73;;
61250;SDS011;47126;47.508;8.590;2024-01-11T07:32:54;78.47;;;27.15;;
61250;SDS011;47126;47.508;8.590;2024-01-11T07:35:20;79.03;;;24.58;;
61250;SDS011;47126;47.508;8.590;2024-01-11T07:37:46;67.05;;;21.92;;
61250;SDS011;47126;47.508;8.590;2024-01-11T07:40:12;73.68;;;24.65;;
61250;SDS011;47126;47.508;8.590;2024-01-11T07:42:39;71.22;;;22.45;;
61250;SDS011;47126;47.508;8.590;2024-01-11T07:45:06;71.85;;;25.98;;
61250;SDS011;47126;47.508;8.590;2024-01-11T07:47:35;73.45;;;23.50;;
61250;SDS011;47126;47.508;8.590;2024-01-11T07:50:07;74.90;;;24.20;;
61250;SDS011;47126;47.508;8.590;2024-01-11T07:52:40;59.70;;;20.95;;
61250;SDS011;47126;47.508;8.590;2024-01-11T07:55:38;68.35;;;22.73;;
61250;SDS011;47126;47.508;8.590;2024-01-11T07:58:36;71.43;;;22.50;;
61250;SDS011;47126;47.508;8.590;2024-01-11T08:01:09;73.07;;;25.70;;
61250;SDS011;47126;47.508;8.590;2024-01-11T08:03:35;72.65;;;25.58;;
61250;SDS011;47126;47.508;8.590;2024-01-11T08:06:01;63.92;;;21.08;;
61250;SDS011;47126;47.508;8.590;2024-01-11T08:08:27;67.35;;;23.27;;
61250;SDS011;47126;47.508;8.590;2024-01-11T08:10:53;77.65;;;26.73;;
61250;SDS011;47126;47.508;8.590;2024-01-11T08:13:20;77.43;;;27.13;;
61250;SDS011;47126;47.508;8.590;2024-01-11T08:15:46;66.50;;;23.48;;
61250;SDS011;47126;47.508;8.590;2024-01-11T08:18:12;68.22;;;26.20;;
61250;SDS011;47126;47.508;8.590;2024-01-11T08:20:39;78.93;;;29.00;;
61250;SDS011;47126;47.508;8.590;2024-01-11T08:23:05;75.57;;;24.60;;
61250;SDS011;47126;47.508;8.590;2024-01-11T08:25:31;70.90;;;24.95;;
61250;SDS011;47126;47.508;8.590;2024-01-11T08:27:58;74.28;;;26.33;;
61250;SDS011;47126;47.508;8.590;2024-01-11T08:30:24;78.90;;;24.67;;
61250;SDS011;47126;47.508;8.590;2024-01-11T08:32:50;70.50;;;25.00;;
61250;SDS011;47126;47.508;8.590;2024-01-11T08:35:16;72.78;;;24.75;;
61250;SDS011;47126;47.508;8.590;2024-01-11T08:37:42;81.07;;;26.10;;
61250;SDS011;47126;47.508;8.590;2024-01-11T08:40:08;71.60;;;26.23;;
61250;SDS011;47126;47.508;8.590;2024-01-11T08:42:34;67.18;;;25.50;;
61250;SDS011;47126;47.508;8.590;2024-01-11T08:45:00;65.13;;;23.67;;
61250;SDS011;47126;47.508;8.590;2024-01-11T08:47:31;67.00;;;25.92;;
61250;SDS011;47126;47.508;8.590;2024-01-11T08:49:58;63.45;;;23.30;;
61250;SDS011;47126;47.508;8.590;2024-01-11T08:52:24;69.15;;;25.33;;
61250;SDS011;47126;47.508;8.590;2024-01-11T08:54:50;74.28;;;25.10;;
61250;SDS011;47126;47.508;8.590;2024-01-11T08:57:16;73.55;;;25.83;;
61250;SDS011;47126;47.508;8.590;2024-01-11T08:59:42;70.50;;;24.02;;
61250;SDS011;47126;47.508;8.590;2024-01-11T09:02:09;62.67;;;24.05;;
61250;SDS011;47126;47.508;8.590;2024-01-11T09:04:35;66.40;;;23.40;;
61250;SDS011;47126;47.508;8.590;2024-01-11T09:07:02;68.30;;;24.23;;
61250;SDS011;47126;47.508;8.590;2024-01-11T09:09:28;70.38;;;24.70;;
61250;SDS011;47126;47.508;8.590;2024-01-11T09:11:54;62.55;;;23.27;;
61250;SDS011;47126;47.508;8.590;2024-01-11T09:14:20;67.40;;;24.38;;
61250;SDS011;47126;47.508;8.590;2024-01-11T09:16:46;67.20;;;23.42;;
61250;SDS011;47126;47.508;8.590;2024-01-11T09:19:14;69.03;;;24.08;;
61250;SDS011;47126;47.508;8.590;2024-01-11T09:21:40;63.92;;;24.55;;
61250;SDS011;47126;47.508;8.590;2024-01-11T09:24:07;76.35;;;24.77;;
61250;SDS011;47126;47.508;8.590;2024-01-11T09:26:33;70.88;;;25.95;;
61250;SDS011;47126;47.508;8.590;2024-01-11T09:29:01;72.95;;;26.52;;
61250;SDS011;47126;47.508;8.590;2024-01-11T09:31:27;73.72;;;26.50;;
61250;SDS011;47126;47.508;8.590;2024-01-11T09:33:53;71.95;;;24.58;;
61250;SDS011;47126;47.508;8.590;2024-01-11T09:36:22;72.43;;;25.42;;
61250;SDS011;47126;47.508;8.590;2024-01-11T09:38:48;71.25;;;24.90;;
61250;SDS011;47126;47.508;8.590;2024-01-11T09:41:14;68.25;;;25.23;;
61250;SDS011;47126;47.508;8.590;2024-01-11T09:43:41;75.43;;;26.60;;
61250;SDS011;47126;47.508;8.590;2024-01-11T09:46:08;61.78;;;23.60;;
61250;SDS011;47126;47.508;8.590;2024-01-11T09:48:36;66.85;;;24.58;;
61250;SDS011;47126;47.508;8.590;2024-01-11T09:51:03;66.43;;;25.77;;
61250;SDS011;47126;47.508;8.590;2024-01-11T09:53:33;82.15;;;27.17;;
61250;SDS011;47126;47.508;8.590;2024-01-11T09:55:59;72.55;;;25.05;;
61250;SDS011;47126;47.508;8.590;2024-01-11T09:58:26;70.43;;;24.65;;
61250;SDS011;47126;47.508;8.590;2024-01-11T10:00:53;79.95;;;28.90;;
61250;SDS011;47126;47.508;8.590;2024-01-11T10:03:20;66.70;;;26.23;;
61250;SDS011;47126;47.508;8.590;2024-01-11T10:05:46;70.35;;;24.05;;
61250;SDS011;47126;47.508;8.590;2024-01-11T10:08:17;62.33;;;25.02;;
61250;SDS011;47126;47.508;8.590;2024-01-11T10:10:43;74.65;;;25.42;;
61250;SDS011;47126;47.508;8.590;2024-01-11T10:13:09;74.72;;;25.85;;
61250;SDS011;47126;47.508;8.590;2024-01-11T10:15:36;75.97;;;26.75;;
61250;SDS011;47126;47.508;8.590;2024-01-11T10:18:02;65.60;;;24.75;;
61250;SDS011;47126;47.508;8.590;2024-01-11T10:20:28;72.72;;;26.13;;
61250;SDS011;47126;47.508;8.590;2024-01-11T10:22:55;75.85;;;24.85;;
61250;SDS011;47126;47.508;8.590;2024-01-11T10:25:22;73.13;;;23.90;;
61250;SDS011;47126;47.508;8.590;2024-01-11T10:27:48;68.35;;;24.83;;
61250;SDS011;47126;47.508;8.590;2024-01-11T10:30:15;66.75;;;24.67;;
61250;SDS011;47126;47.508;8.590;2024-01-11T10:32:45;73.15;;;25.90;;
61250;SDS011;47126;47.508;8.590;2024-01-11T10:35:11;79.00;;;25.80;;
61250;SDS011;47126;47.508;8.590;2024-01-11T10:37:37;78.70;;;26.02;;
61250;SDS011;47126;47.508;8.590;2024-01-11T10:40:05;74.18;;;24.75;;
61250;SDS011;47126;47.508;8.590;2024-01-11T10:42:49;78.85;;;28.10;;
61250;SDS011;47126;47.508;8.590;2024-01-11T10:45:17;65.43;;;23.33;;
61250;SDS011;47126;47.508;8.590;2024-01-11T10:48:06;72.32;;;23.67;;
61250;SDS011;47126;47.508;8.590;2024-01-11T10:50:30;68.10;;;23.67;;
61250;SDS011;47126;47.508;8.590;2024-01-11T10:53:04;66.00;;;24.20;;
61250;SDS011;47126;47.508;8.590;2024-01-11T10:55:36;71.97;;;24.80;;
61250;SDS011;47126;47.508;8.590;2024-01-11T10:58:02;70.95;;;24.45;;
61250;SDS011;47126;47.508;8.590;2024-01-11T11:00:29;73.40;;;24.65;;
61250;SDS011;47126;47.508;8.590;2024-01-11T11:09:03;65.10;;;24.40;;
61250;SDS011;47126;47.508;8.590;2024-01-11T11:11:33;70.88;;;26.65;;
61250;SDS011;47126;47.508;8.590;2024-01-11T11:14:00;77.68;;;27.25;;
61250;SDS011;47126;47.508;8.590;2024-01-11T11:16:27;82.30;;;25.13;;
61250;SDS011;47126;47.508;8.590;2024-01-11T11:18:53;75.93;;;23.98;;
61250;SDS011;47126;47.508;8.590;2024-01-11T11:21:20;74.68;;;25.98;;
61250;SDS011;47126;47.508;8.590;2024-01-11T11:23:46;66.15;;;24.35;;
61250;SDS011;47126;47.508;8.590;2024-01-11T11:26:16;84.05;;;28.48;;
61250;SDS011;47126;47.508;8.590;2024-01-11T11:28:42;77.95;;;28.25;;
61250;SDS011;47126;47.508;8.590;2024-01-11T11:31:10;89.45;;;30.35;;
61250;SDS011;47126;47.508;8.590;2024-01-11T11:33:38;78.40;;;25.05;;
61250;SDS011;47126;47.508;8.590;2024-01-11T11:36:07;70.45;;;26.02;;
61250;SDS011;47126;47.508;8.590;2024-01-11T11:38:38;72.45;;;26.10;;
61250;SDS011;47126;47.508;8.590;2024-01-11T11:41:05;74.85;;;25.45;;
61250;SDS011;47126;47.508;8.590;2024-01-11T11:43:31;68.05;;;24.13;;
61250;SDS011;47126;47.508;8.590;2024-01-11T11:45:57;65.90;;;22.95;;
61250;SDS011;47126;47.508;8.590;2024-01-11T11:51:06;64.75;;;22.27;;
61250;SDS011;47126;47.508;8.590;2024-01-11T11:53:33;76.30;;;25.08;;
61250;SDS011;47126;47.508;8.590;2024-01-11T11:56:00;72.18;;;23.85;;
61250;SDS011;47126;47.508;8.590;2024-01-11T11:58:27;75.57;;;27.30;;
61250;SDS011;47126;47.508;8.590;2024-01-11T12:00:54;63.95;;;20.75;;
61250;SDS011;47126;47.508;8.590;2024-01-11T12:03:20;63.95;;;21.50;;
61250;SDS011;47126;47.508;8.590;2024-01-11T12:05:50;70.00;;;21.60;;
61250;SDS011;47126;47.508;8.590;2024-01-11T12:08:16;56.97;;;21.55;;
61250;SDS011;47126;47.508;8.590;2024-01-11T12:10:42;66.18;;;24.58;;
61250;SDS011;47126;47.508;8.590;2024-01-11T12:13:08;65.05;;;22.27;;
61250;SDS011;47126;47.508;8.590;2024-01-11T12:15:34;66.10;;;20.85;;
61250;SDS011;47126;47.508;8.590;2024-01-11T12:18:00;76.50;;;23.25;;
61250;SDS011;47126;47.508;8.590;2024-01-11T12:20:26;64.25;;;21.77;;
61250;SDS011;47126;47.508;8.590;2024-01-11T12:22:54;57.63;;;21.50;;
61250;SDS011;47126;47.508;8.590;2024-01-11T12:25:20;69.15;;;23.42;;
61250;SDS011;47126;47.508;8.590;2024-01-11T12:27:47;67.45;;;22.65;;
61250;SDS011;47126;47.508;8.590;2024-01-11T12:30:13;67.00;;;20.20;;
61250;SDS011;47126;47.508;8.590;2024-01-11T12:32:42;67.53;;;20.45;;
61250;SDS011;47126;47.508;8.590;2024-01-11T12:35:09;70.57;;;25.75;;
61250;SDS011;47126;47.508;8.590;2024-01-11T12:37:36;57.00;;;18.77;;
61250;SDS011;47126;47.508;8.590;2024-01-11T12:40:02;67.03;;;20.85;;
61250;SDS011;47126;47.508;8.590;2024-01-11T12:42:28;59.63;;;22.83;;
61250;SDS011;47126;47.508;8.590;2024-01-11T12:44:55;67.45;;;23.10;;
61250;SDS011;47126;47.508;8.590;2024-01-11T12:47:21;62.67;;;19.77;;
61250;SDS011;47126;47.508;8.590;2024-01-11T12:49:50;62.33;;;22.73;;
61250;SDS011;47126;47.508;8.590;2024-01-11T12:52:18;79.30;;;26.03;;
61250;SDS011;47126;47.508;8.590;2024-01-11T12:54:51;68.15;;;23.30;;
61250;SDS011;47126;47.508;8.590;2024-01-11T12:57:21;60.72;;;22.52;;
61250;SDS011;47126;47.508;8.590;2024-01-11T12:59:48;64.65;;;23.13;;
61250;SDS011;47126;47.508;8.590;2024-01-11T13:02:15;58.08;;;21.58;;
61250;SDS011;47126;47.508;8.590;2024-01-11T13:04:45;69.45;;;21.17;;
61250;SDS011;47126;47.508;8.590;2024-01-11T13:07:11;68.07;;;22.52;;
61250;SDS011;47126;47.508;8.590;2024-01-11T13:09:38;64.22;;;22.55;;
61250;SDS011;47126;47.508;8.590;2024-01-11T13:12:04;54.50;;;20.40;;
61250;SDS011;47126;47.508;8.590;2024-01-11T13:14:30;62.22;;;18.58;;
61250;SDS011;47126;47.508;8.590;2024-01-11T13:16:57;67.15;;;23.02;;
61250;SDS011;47126;47.508;8.590;2024-01-11T13:19:23;56.47;;;19.10;;
61250;SDS011;47126;47.508;8.590;2024-01-11T13:21:50;65.53;;;19.88;;
61250;SDS011;47126;47.508;8.590;2024-01-11T13:24:17;54.50;;;18.88;;
61250;SDS011;47126;47.508;8.590;2024-01-11T13:26:43;57.95;;;18.63;;
61250;SDS011;47126;47.508;8.590;2024-01-11T13:29:10;56.63;;;19.98;;
61250;SDS011;47126;47.508;8.590;2024-01-11T13:31:36;53.40;;;19.20;;
61250;SDS011;47126;47.508;8.590;2024-01-11T13:34:03;55.45;;;18.17;;
61250;SDS011;47126;47.508;8.590;2024-01-11T13:36:29;56.13;;;20.55;;
61250;SDS011;47126;47.508;8.590;2024-01-11T13:38:55;58.17;;;19.65;;
61250;SDS011;47126;47.508;8.590;2024-01-11T13:41:21;54.28;;;19.08;;
61250;SDS011;47126;47.508;8.590;2024-01-11T13:43:47;61.75;;;21.30;;
61250;SDS011;47126;47.508;8.590;2024-01-11T13:46:14;57.90;;;20.98;;
61250;SDS011;47126;47.508;8.590;2024-01-11T13:48:41;51.22;;;16.13;;
61250;SDS011;47126;47.508;8.590;2024-01-11T13:51:08;53.22;;;16.42;;
61250;SDS011;47126;47.508;8.590;2024-01-11T13:53:37;64.60;;;19.23;;
61250;SDS011;47126;47.508;8.590;2024-01-11T13:56:04;61.15;;;20.45;;
61250;SDS011;47126;47.508;8.590;2024-01-11T13:58:31;44.85;;;16.50;;
61250;SDS011;47126;47.508;8.590;2024-01-11T14:00:57;47.42;;;16.02;;
61250;SDS011;47126;47.508;8.590;2024-01-11T14:03:23;55.78;;;18.88;;
61250;SDS011;47126;47.508;8.590;2024-01-11T14:05:49;56.15;;;18.55;;
61250;SDS011;47126;47.508;8.590;2024-01-11T14:08:15;56.80;;;19.70;;
61250;SDS011;47126;47.508;8.590;2024-01-11T14:10:41;46.45;;;17.15;;
61250;SDS011;47126;47.508;8.590;2024-01-11T14:13:07;51.03;;;18.55;;
61250;SDS011;47126;47.508;8.590;2024-01-11T14:15:34;52.95;;;17.92;;
61250;SDS011;47126;47.508;8.590;2024-01-11T14:18:01;56.58;;;17.83;;
61250;SDS011;47126;47.508;8.590;2024-01-11T14:20:28;56.97;;;18.63;;
61250;SDS011;47126;47.508;8.590;2024-01-11T14:22:55;48.85;;;17.67;;
61250;SDS011;47126;47.508;8.590;2024-01-11T14:25:23;47.35;;;15.63;;
61250;SDS011;47126;47.508;8.590;2024-01-11T14:27:54;43.30;;;15.63;;
61250;SDS011;47126;47.508;8.590;2024-01-11T14:30:21;52.83;;;18.05;;